Time;durP1;ratioP1;P1;durP2;ratioP2;P2;SDS_P1;SDS_P2;PMS_P1;PMS_P2;Temp;Humidity;BMP_temperature;BMP_pressure;BME280_temperature;BME280_humidity;BME280_pressure;Samples;Min_cycle;Max_cycle;Signal;HPM_P1;HPM_P2
2022/09/08 00:00:39;;;;;;;3.83;1.55;;;20.90;77.60;;;;;;5014552;28;20046;-84
2022/09/08 00:03:09;;;;;;;5.90;1.70;;;20.90;78.20;;;;;;5030259;28;20521;-84
2022/09/08 00:05:41;;;;;;;5.97;1.70;;;20.90;77.60;;;;;;5030155;28;20474;-84
2022/09/08 00:08:09;;;;;;;6.70;1.58;;;20.90;77.50;;;;;;5030189;28;20030;-85
2022/09/08 00:10:37;;;;;;;6.00;1.55;;;20.90;77.50;;;;;;5014099;28;20061;-84
2022/09/08 00:13:03;;;;;;;6.50;1.70;;;20.90;77.40;;;;;;5030179;28;20084;-86
2022/09/08 00:15:29;;;;;;;8.80;2.17;;;20.90;77.50;;;;;;5013779;28;20038;-85
2022/09/08 00:17:55;;;;;;;4.60;1.58;;;20.90;78.10;;;;;;5013245;28;20568;-85
2022/09/08 00:20:20;;;;;;;5.88;1.63;;;20.90;78.50;;;;;;5014894;28;20030;-85
2022/09/08 00:22:46;;;;;;;5.60;1.85;;;20.80;79.10;;;;;;5014340;28;20498;-85
2022/09/08 00:25:12;;;;;;;5.38;1.67;;;20.70;79.00;;;;;;5029657;28;20474;-85
2022/09/08 00:27:37;;;;;;;3.85;1.60;;;20.80;79.70;;;;;;5030169;28;20108;-85
2022/09/08 00:30:04;;;;;;;4.40;1.27;;;20.80;79.80;;;;;;5029587;28;20474;-86
2022/09/08 00:32:30;;;;;;;6.55;1.40;;;20.70;80.00;;;;;;5014479;28;20022;-85
2022/09/08 00:35:00;;;;;;;6.95;1.45;;;20.70;80.40;;;;;;5029539;28;20375;-85
2022/09/08 00:37:26;;;;;;;7.50;1.73;;;20.60;80.60;;;;;;5012968;28;20108;-85
2022/09/08 00:39:52;;;;;;;6.78;1.58;;;20.60;80.90;;;;;;5013376;28;20022;-86
2022/09/08 00:42:18;;;;;;;5.45;1.20;;;20.60;81.30;;;;;;4996917;28;20128;-85
2022/09/08 00:44:49;;;;;;;4.10;1.30;;;20.60;81.80;;;;;;5013112;28;20026;-84
2022/09/08 00:47:30;;;;;;;5.28;1.02;;;20.50;82.00;;;;;;5029437;28;20084;-85
2022/09/08 00:50:22;;;;;;;5.03;0.90;;;20.40;82.40;;;;;;5028682;28;20017;-81
2022/09/08 00:53:00;;;;;;;5.90;1.45;;;20.30;82.90;;;;;;5033082;28;20064;-81
2022/09/08 00:55:31;;;;;;;8.77;1.20;;;20.20;83.20;;;;;;5030962;28;20618;-80
2022/09/08 00:57:56;;;;;;;4.80;1.08;;;20.10;83.80;;;;;;5031684;28;20371;-80
2022/09/08 01:00:22;;;;;;;6.32;1.83;;;20.00;85.10;;;;;;5031946;28;20083;-80
2022/09/08 01:02:48;;;;;;;5.57;1.30;;;19.90;84.80;;;;;;5016113;28;20079;-85
2022/09/08 01:05:18;;;;;;;7.72;1.48;;;19.80;85.40;;;;;;5032802;28;20018;-85
2022/09/08 01:14:12;;;;;;;4.25;1.10;;;19.50;87.00;;;;;;5033684;28;20072;-85
2022/09/08 01:16:43;;;;;;;6.63;2.10;;;19.40;87.10;;;;;;5032477;28;20060;-85
2022/09/08 01:19:19;;;;;;;3.90;1.35;;;19.40;87.30;;;;;;5032074;28;20060;-84
2022/09/08 01:21:57;;;;;;;6.88;1.48;;;19.40;87.80;;;;;;5031828;28;20057;-84
2022/09/08 01:24:51;;;;;;;4.82;1.33;;;19.40;88.20;;;;;;5031545;28;20048;-83
2022/09/08 01:27:21;;;;;;;5.13;1.50;;;19.30;88.60;;;;;;5031724;28;20022;-84
2022/09/08 01:29:48;;;;;;;4.60;1.50;;;19.30;88.90;;;;;;5031830;28;20017;-84
2022/09/08 01:32:15;;;;;;;3.83;1.35;;;19.20;88.90;;;;;;5033065;28;20053;-80
2022/09/08 01:34:43;;;;;;;6.70;1.52;;;19.20;89.20;;;;;;5015408;28;20087;-80
2022/09/08 01:37:09;;;;;;;8.15;2.22;;;19.20;89.40;;;;;;5031708;28;20017;-80
2022/09/08 01:39:35;;;;;;;6.28;1.48;;;19.10;90.00;;;;;;5032866;28;20052;-80
2022/09/08 01:42:01;;;;;;;5.40;1.60;;;19.10;90.00;;;;;;5031726;28;20030;-80
2022/09/08 01:44:30;;;;;;;5.40;1.73;;;19.10;90.00;;;;;;5015193;28;20108;-80
2022/09/08 01:46:55;;;;;;;8.70;2.42;;;19.10;90.40;;;;;;5032680;28;20037;-80
2022/09/08 01:49:21;;;;;;;7.45;2.15;;;19.10;90.30;;;;;;5034287;28;20033;-81
2022/09/08 01:51:47;;;;;;;8.55;2.22;;;19.10;90.40;;;;;;5019358;28;20025;-81
2022/09/08 01:54:13;;;;;;;9.80;1.92;;;19.10;90.60;;;;;;5036614;28;20030;-81
2022/09/08 01:56:39;;;;;;;4.95;1.75;;;19.10;90.70;;;;;;5035615;28;20057;-80
2022/09/08 01:59:04;;;;;;;6.05;1.70;;;19.10;91.10;;;;;;5019456;28;20084;-80
2022/09/08 02:01:30;;;;;;;9.52;2.30;;;19.10;91.10;;;;;;5014339;28;20034;-80
2022/09/08 02:03:55;;;;;;;8.32;2.28;;;19.10;91.60;;;;;;5030220;28;20040;-80
2022/09/08 02:06:21;;;;;;;9.18;2.33;;;19.10;91.50;;;;;;5035144;28;20026;-80
2022/09/08 02:08:52;;;;;;;6.75;2.35;;;19.10;91.60;;;;;;5035359;28;20125;-80
2022/09/08 02:11:19;;;;;;;5.82;2.00;;;19.00;91.70;;;;;;5035392;28;20013;-79
2022/09/08 02:13:45;;;;;;;9.00;2.45;;;19.00;91.70;;;;;;5035323;28;20022;-80
2022/09/08 02:16:11;;;;;;;5.88;1.95;;;18.90;91.80;;;;;;5035274;28;20064;-80
2022/09/08 02:18:38;;;;;;;11.50;2.53;;;18.80;92.00;;;;;;5018787;28;20036;-82
2022/09/08 02:21:12;;;;;;;11.05;3.10;;;18.80;92.10;;;;;;5034974;28;20068;-80
2022/09/08 02:23:39;;;;;;;;;;;18.80;92.20;;;;;;5035469;28;20045;-80
2022/09/08 02:26:06;;;;;;;6.43;2.47;;;18.70;92.40;;;;;;5036358;28;19948;-80
2022/09/08 02:28:33;;;;;;;8.32;2.60;;;18.70;92.40;;;;;;5027701;28;20085;-80
2022/09/08 02:31:01;;;;;;;6.57;2.05;;;18.60;92.40;;;;;;5029994;28;20057;-80
2022/09/08 02:33:27;;;;;;;6.75;2.38;;;18.60;92.50;;;;;;5035988;28;20029;-80
2022/09/08 02:35:53;;;;;;;7.70;2.33;;;18.50;92.60;;;;;;5018775;28;20405;-80
2022/09/08 02:38:19;;;;;;;6.43;2.50;;;18.50;92.70;;;;;;5036189;28;20026;-80
2022/09/08 02:40:45;;;;;;;12.20;3.08;;;18.50;92.80;;;;;;5018548;28;20452;-83
2022/09/08 02:43:11;;;;;;;7.53;2.15;;;18.40;92.90;;;;;;5018522;28;20029;-83
2022/09/08 02:45:40;;;;;;;9.18;2.53;;;18.40;93.00;;;;;;5035111;28;20549;-83
2022/09/08 02:48:06;;;;;;;7.63;2.75;;;18.40;93.10;;;;;;5034921;28;20025;-84
2022/09/08 02:50:31;;;;;;;7.70;2.45;;;18.50;93.30;;;;;;5034925;28;20041;-83
2022/09/08 02:52:57;;;;;;;7.40;2.47;;;18.40;93.40;;;;;;5034871;28;20134;-83
2022/09/08 02:55:23;;;;;;;7.22;2.10;;;18.40;93.50;;;;;;5035838;28;20121;-84
2022/09/08 02:57:50;;;;;;;6.05;2.08;;;18.40;93.60;;;;;;5035904;28;20033;-84
2022/09/08 03:00:16;;;;;;;7.55;2.30;;;18.30;93.70;;;;;;5033338;28;20072;-84
2022/09/08 03:02:43;;;;;;;6.55;2.65;;;18.30;93.80;;;;;;5018522;28;20030;-83
2022/09/08 03:05:09;;;;;;;9.23;2.10;;;18.30;93.80;;;;;;5034655;28;20030;-83
2022/09/08 03:07:36;;;;;;;7.65;2.60;;;18.40;93.90;;;;;;5034467;28;20030;-83
2022/09/08 03:10:04;;;;;;;8.82;2.55;;;18.40;94.20;;;;;;5034598;28;20111;-83
2022/09/08 03:12:30;;;;;;;7.57;2.10;;;18.30;94.00;;;;;;5036044;28;20104;-83
2022/09/08 03:14:56;;;;;;;8.93;2.80;;;18.40;94.10;;;;;;5034434;28;20056;-83
2022/09/08 03:17:22;;;;;;;6.90;1.98;;;18.30;94.10;;;;;;5034368;28;20032;-83
2022/09/08 03:19:48;;;;;;;7.07;2.55;;;18.30;94.10;;;;;;5034717;28;20030;-83
2022/09/08 03:22:14;;;;;;;6.72;2.40;;;18.30;94.20;;;;;;5017774;28;20042;-83
2022/09/08 03:24:40;;;;;;;8.07;2.35;;;18.30;94.40;;;;;;5017733;28;20095;-83
2022/09/08 03:27:06;;;;;;;6.45;2.33;;;18.30;94.40;;;;;;5034211;28;20022;-84
2022/09/08 03:29:32;;;;;;;10.02;2.65;;;18.30;94.40;;;;;;5017718;28;20029;-83
2022/09/08 03:31:58;;;;;;;7.25;2.35;;;18.30;94.50;;;;;;5034129;28;20033;-83
2022/09/08 03:34:25;;;;;;;7.40;2.22;;;18.30;94.50;;;;;;5034299;28;20148;-83
2022/09/08 03:36:51;;;;;;;6.45;2.35;;;18.30;94.50;;;;;;5035389;28;20032;-84
2022/09/08 03:39:16;;;;;;;7.22;1.95;;;18.40;94.60;;;;;;5034005;28;20120;-84
2022/09/08 03:41:42;;;;;;;4.55;1.90;;;18.30;94.60;;;;;;5017390;28;20025;-84
2022/09/08 03:44:08;;;;;;;6.32;2.45;;;18.30;94.70;;;;;;5017421;28;20026;-83
2022/09/08 03:46:34;;;;;;;7.05;1.83;;;18.30;94.70;;;;;;5033919;28;20159;-84
2022/09/08 03:48:59;;;;;;;8.02;1.85;;;18.30;94.70;;;;;;5034042;28;20112;-84
2022/09/08 03:51:26;;;;;;;4.45;1.50;;;18.30;94.70;;;;;;5035066;28;20030;-84
2022/09/08 03:53:53;;;;;;;6.90;1.70;;;18.30;94.90;;;;;;5033798;28;20027;-83
2022/09/08 03:56:20;;;;;;;9.50;2.90;;;18.30;94.70;;;;;;5028864;28;20030;-84
2022/09/08 03:58:46;;;;;;;7.78;1.92;;;18.40;94.80;;;;;;5021422;28;20041;-84
2022/09/08 04:01:14;;;;;;;5.97;1.45;;;18.40;94.90;;;;;;5014444;28;20037;-79
2022/09/08 04:03:40;;;;;;;6.47;1.90;;;18.40;94.90;;;;;;5014780;28;20032;-78
2022/09/08 04:06:06;;;;;;;6.88;2.03;;;18.30;94.80;;;;;;5013560;28;20032;-79
2022/09/08 04:08:32;;;;;;;6.10;1.75;;;18.30;94.80;;;;;;5029981;28;20393;-79
2022/09/08 04:10:58;;;;;;;8.30;2.47;;;18.30;94.90;;;;;;5029526;28;20033;-79
2022/09/08 04:13:24;;;;;;;5.55;2.05;;;18.30;95.10;;;;;;5014689;28;20036;-79
2022/09/08 04:15:50;;;;;;;7.30;3.05;;;18.30;95.00;;;;;;5014581;28;20021;-79
2022/09/08 04:18:15;;;;;;;8.75;3.00;;;18.30;95.10;;;;;;5029632;28;20030;-79
2022/09/08 04:20:41;;;;;;;6.47;3.17;;;18.30;95.10;;;;;;5029755;28;20025;-78
2022/09/08 04:23:07;;;;;;;6.70;2.45;;;18.30;95.10;;;;;;5013048;28;20050;-78
2022/09/08 04:25:33;;;;;;;10.55;3.15;;;18.30;95.10;;;;;;5029560;28;20033;-78
2022/09/08 04:27:58;;;;;;;7.38;2.65;;;18.20;95.10;;;;;;5013382;28;20030;-78
2022/09/08 04:30:25;;;;;;;5.85;2.30;;;18.20;95.10;;;;;;5013036;28;20548;-79
2022/09/08 04:32:50;;;;;;;5.97;2.15;;;18.20;95.10;;;;;;5013021;28;20502;-78
2022/09/08 04:35:16;;;;;;;4.70;2.03;;;18.10;95.00;;;;;;5013036;28;20030;-78
2022/09/08 04:37:42;;;;;;;7.25;2.97;;;18.10;95.00;;;;;;5029350;28;20385;-78
2022/09/08 04:40:08;;;;;;;5.68;1.80;;;18.10;95.00;;;;;;5012842;28;20037;-78
2022/09/08 04:42:35;;;;;;;5.50;1.90;;;18.00;95.00;;;;;;5012898;28;20030;-79
2022/09/08 04:45:01;;;;;;;8.52;2.03;;;18.00;94.90;;;;;;5013969;28;20504;-78
2022/09/08 04:47:27;;;;;;;5.13;1.77;;;18.00;94.90;;;;;;5030877;28;20025;-79
2022/09/08 04:49:53;;;;;;;6.15;1.83;;;18.00;94.90;;;;;;5029223;28;20029;-78
2022/09/08 04:52:20;;;;;;;6.68;1.65;;;18.00;94.90;;;;;;4996136;28;20486;-78
2022/09/08 04:54:46;;;;;;;7.50;1.50;;;17.90;94.90;;;;;;5014205;28;20080;-78
2022/09/08 04:57:15;;;;;;;7.60;2.25;;;17.90;94.90;;;;;;5012707;28;20030;-78
2022/09/08 04:59:41;;;;;;;6.43;2.08;;;17.90;95.30;;;;;;4996801;28;20044;-78
2022/09/08 05:02:07;;;;;;;7.70;2.10;;;17.90;95.10;;;;;;5013829;28;20022;-78
2022/09/08 05:04:33;;;;;;;6.78;2.20;;;17.90;95.10;;;;;;5012428;28;20026;-78
2022/09/08 05:06:59;;;;;;;5.55;2.42;;;17.80;95.10;;;;;;4996443;28;20116;-77
2022/09/08 05:09:24;;;;;;;6.13;2.58;;;17.90;95.20;;;;;;5010061;28;20512;-77
2022/09/08 05:11:50;;;;;;;8.15;2.47;;;17.90;95.30;;;;;;5013201;28;20026;-77
2022/09/08 05:14:16;;;;;;;8.32;3.00;;;17.90;95.40;;;;;;5014265;28;20416;-76
2022/09/08 05:16:41;;;;;;;9.13;3.35;;;17.80;95.50;;;;;;5028854;28;20025;-77
2022/09/08 05:19:07;;;;;;;7.40;3.17;;;17.80;95.70;;;;;;5012153;28;20041;-77
2022/09/08 05:21:35;;;;;;;7.38;3.78;;;17.70;95.90;;;;;;5013112;28;20479;-76
2022/09/08 05:24:01;;;;;;;9.05;3.53;;;17.70;96.10;;;;;;5012053;28;20018;-77
2022/09/08 05:26:28;;;;;;;9.05;3.33;;;17.60;96.10;;;;;;5012213;28;20048;-76
2022/09/08 05:28:54;;;;;;;7.80;3.38;;;17.60;96.40;;;;;;5022345;28;20026;-77
2022/09/08 05:31:25;;;;;;;7.65;3.50;;;17.50;96.50;;;;;;5012151;28;20089;-77
2022/09/08 05:33:54;;;;;;;8.15;4.00;;;17.50;96.60;;;;;;5031119;28;20053;-75
2022/09/08 05:36:23;;;;;;;7.03;3.08;;;17.50;96.70;;;;;;5019607;28;20359;-77
2022/09/08 05:38:49;;;;;;;12.00;4.10;;;17.50;96.90;;;;;;5031200;28;20022;-76
2022/09/08 05:41:15;;;;;;;9.68;4.40;;;17.40;97.00;;;;;;5033156;28;20025;-77
2022/09/08 05:43:41;;;;;;;8.95;4.13;;;17.40;97.20;;;;;;5031739;28;20022;-77
2022/09/08 05:46:08;;;;;;;11.75;4.80;;;17.40;97.50;;;;;;5012046;28;20023;-77
2022/09/08 05:48:34;;;;;;;10.95;4.32;;;17.40;97.60;;;;;;5015794;28;20021;-77
2022/09/08 05:51:02;;;;;;;10.88;4.40;;;17.40;97.50;;;;;;5014570;28;20076;-78
2022/09/08 05:53:28;;;;;;;10.43;4.72;;;17.40;97.60;;;;;;5031424;28;20033;-77
2022/09/08 05:56:02;;;;;;;9.45;4.93;;;17.40;97.60;;;;;;5023152;28;20029;-77
2022/09/08 05:58:29;;;;;;;17.95;5.35;;;17.40;97.70;;;;;;5015932;28;20530;-77
2022/09/08 06:01:13;;;;;;;13.25;4.63;;;17.40;97.90;;;;;;5037008;28;20173;-77
2022/09/08 06:03:39;;;;;;;11.48;4.65;;;17.30;98.00;;;;;;5031653;28;20061;-83
2022/09/08 06:06:07;;;;;;;13.02;5.47;;;17.40;98.10;;;;;;5030567;28;20067;-84
2022/09/08 06:08:33;;;;;;;9.10;4.10;;;17.30;98.10;;;;;;5012884;28;20025;-84
2022/09/08 06:11:00;;;;;;;11.98;5.20;;;17.30;98.00;;;;;;5033508;28;20166;-84
2022/09/08 06:13:26;;;;;;;10.57;5.10;;;17.30;98.10;;;;;;5030905;28;20392;-84
2022/09/08 06:15:52;;;;;;;11.98;5.43;;;17.30;98.10;;;;;;5051148;28;20029;-83
2022/09/08 06:18:19;;;;;;;13.18;5.38;;;17.30;98.20;;;;;;5050964;28;20029;-85
2022/09/08 06:20:45;;;;;;;14.00;6.07;;;17.30;98.30;;;;;;5050804;28;20032;-85
2022/09/08 06:23:12;;;;;;;16.85;6.13;;;17.30;98.30;;;;;;5034653;28;20045;-83
2022/09/08 06:25:40;;;;;;;11.95;5.82;;;17.20;98.40;;;;;;5052796;28;20029;-85
2022/09/08 06:28:40;;;;;;;12.70;5.13;;;17.30;98.50;;;;;;5041543;28;20026;-84
2022/09/08 06:31:08;;;;;;;11.77;5.10;;;17.30;98.60;;;;;;5021417;28;20029;-84
2022/09/08 06:33:39;;;;;;;9.88;4.85;;;17.30;98.60;;;;;;5030646;28;20014;-84
2022/09/08 06:36:13;;;;;;;13.13;5.38;;;17.30;98.70;;;;;;5031191;28;20112;-85
2022/09/08 06:38:47;;;;;;;13.88;6.07;;;17.30;98.70;;;;;;5030432;28;20033;-85
2022/09/08 06:41:24;;;;;;;10.93;4.70;;;17.40;98.70;;;;;;5022022;28;20037;-84
2022/09/08 06:44:03;;;;;;;10.38;5.13;;;17.30;98.80;;;;;;5022497;28;20026;-84
2022/09/08 06:46:39;;;;;;;12.55;5.60;;;17.30;98.80;;;;;;5025756;28;20022;-83
2022/09/08 06:49:05;;;;;;;11.23;4.50;;;17.40;98.90;;;;;;5025146;28;20021;-84
2022/09/08 06:51:47;;;;;;;9.88;4.90;;;17.30;98.90;;;;;;5028153;28;20077;-82
2022/09/08 06:54:28;;;;;;;9.93;5.57;;;17.30;99.20;;;;;;5030956;28;20029;-84
2022/09/08 06:57:11;;;;;;;11.15;4.82;;;17.30;99.00;;;;;;5021823;28;20033;-82
2022/09/08 06:59:55;;;;;;;12.65;4.97;;;17.30;98.90;;;;;;5020235;28;20104;-82
2022/09/08 07:02:59;;;;;;;9.82;4.78;;;17.30;99.10;;;;;;5027703;28;20032;-82
2022/09/08 07:05:24;;;;;;;10.95;5.03;;;17.20;99.20;;;;;;5024056;28;20032;-83
2022/09/08 07:08:18;;;;;;;9.98;4.80;;;17.20;99.20;;;;;;5033612;28;20026;-83
2022/09/08 07:10:50;;;;;;;9.68;5.03;;;17.20;99.20;;;;;;5039106;28;20052;-83
2022/09/08 07:13:25;;;;;;;10.73;5.35;;;17.20;99.20;;;;;;5025447;28;20827;-84
2022/09/08 07:16:04;;;;;;;12.50;5.47;;;17.20;99.20;;;;;;5025017;28;20053;-83
2022/09/08 07:19:16;;;;;;;11.27;5.68;;;17.20;99.30;;;;;;5027987;28;20075;-84
2022/09/08 07:22:02;;;;;;;10.25;5.90;;;17.20;99.50;;;;;;5053319;28;20041;-82
2022/09/08 07:24:34;;;;;;;11.68;6.43;;;17.30;99.40;;;;;;5036424;28;20041;-81
2022/09/08 07:27:04;;;;;;;9.23;5.03;;;17.20;99.50;;;;;;5040877;28;20037;-81
2022/09/08 07:29:33;;;;;;;11.00;6.68;;;17.20;99.40;;;;;;5033799;28;20469;-81
2022/09/08 07:32:00;;;;;;;8.75;5.63;;;17.30;99.40;;;;;;5025920;28;20017;-81
2022/09/08 07:34:35;;;;;;;11.43;6.50;;;17.30;99.60;;;;;;5020564;28;20040;-83
2022/09/08 07:37:19;;;;;;;10.02;6.03;;;17.30;99.50;;;;;;5014614;28;20391;-83
2022/09/08 07:39:59;;;;;;;9.38;5.18;;;17.30;99.50;;;;;;5014019;28;20036;-83
2022/09/08 07:42:26;;;;;;;9.63;5.20;;;17.30;99.50;;;;;;5027402;28;20029;-83
2022/09/08 07:45:00;;;;;;;8.05;5.20;;;17.30;99.50;;;;;;5033565;28;20083;-82
2022/09/08 07:47:28;;;;;;;;;;;17.40;99.60;;;;;;5030705;28;20049;-82
2022/09/08 07:50:21;;;;;;;8.02;4.55;;;17.40;99.50;;;;;;5022774;28;19955;-82
2022/09/08 07:53:11;;;;;;;6.90;4.53;;;17.40;99.50;;;;;;5034498;28;20033;-82
2022/09/08 07:55:41;;;;;;;7.80;4.68;;;17.50;99.50;;;;;;5033821;28;20035;-82
2022/09/08 07:58:13;;;;;;;8.13;4.95;;;17.50;99.50;;;;;;5020456;28;20026;-82
2022/09/08 08:01:17;;;;;;;7.43;5.00;;;17.60;99.50;;;;;;5013728;28;20036;-82
2022/09/08 08:04:16;;;;;;;7.47;4.45;;;17.60;99.50;;;;;;5013342;28;20541;-82
2022/09/08 08:06:49;;;;;;;8.25;5.32;;;17.70;99.50;;;;;;5015151;28;20034;-81
2022/09/08 08:09:42;;;;;;;9.13;4.80;;;17.70;99.40;;;;;;5013507;28;20022;-82
2022/09/08 08:12:31;;;;;;;9.02;4.97;;;17.70;99.40;;;;;;5013548;28;20041;-81
2022/09/08 08:15:02;;;;;;;8.90;4.75;;;17.80;99.40;;;;;;5013650;28;20172;-78
2022/09/08 08:17:39;;;;;;;9.27;4.80;;;17.80;99.30;;;;;;5013316;28;20124;-82
2022/09/08 08:20:39;;;;;;;7.75;4.60;;;17.80;99.20;;;;;;5013441;28;20026;-82
2022/09/08 08:23:34;;;;;;;7.00;4.13;;;17.90;99.20;;;;;;5013221;28;20042;-82
2022/09/08 08:26:26;;;;;;;10.85;4.25;;;18.00;99.30;;;;;;5015913;28;20042;-82
2022/09/08 08:29:13;;;;;;;9.65;4.10;;;18.10;99.20;;;;;;5014824;28;20026;-82
2022/09/08 08:31:47;;;;;;;7.13;3.72;;;18.20;99.10;;;;;;5014965;28;20123;-83
2022/09/08 08:34:24;;;;;;;6.22;3.78;;;18.30;99.00;;;;;;5015002;28;20018;-83
2022/09/08 08:36:51;;;;;;;8.68;4.50;;;18.40;98.90;;;;;;5014267;28;20470;-83
2022/09/08 08:39:24;;;;;;;9.23;4.70;;;18.40;98.70;;;;;;5033722;28;20037;-82
2022/09/08 08:42:19;;;;;;;8.13;3.95;;;18.50;98.70;;;;;;5034785;28;20079;-81
2022/09/08 08:45:03;;;;;;;7.25;3.15;;;18.60;98.60;;;;;;5029234;28;20037;-83
2022/09/08 08:47:48;;;;;;;5.85;3.53;;;18.70;98.30;;;;;;5027415;28;20025;-83
2022/09/08 08:50:41;;;;;;;4.32;2.85;;;18.80;98.00;;;;;;5020068;28;20036;-84
2022/09/08 08:53:07;;;;;;;7.07;3.53;;;18.80;98.00;;;;;;5019521;28;20490;-84
2022/09/08 08:55:53;;;;;;;6.18;2.92;;;18.90;97.90;;;;;;5012570;28;20033;-85
2022/09/08 08:58:30;;;;;;;5.82;3.15;;;19.00;97.80;;;;;;5010371;28;20478;-84
2022/09/08 09:01:02;;;;;;;7.25;3.30;;;19.10;97.70;;;;;;5011968;28;20032;-83
2022/09/08 09:03:53;;;;;;;8.45;3.45;;;19.30;97.80;;;;;;5020355;28;20021;-84
2022/09/08 09:06:36;;;;;;;6.82;2.90;;;19.40;97.50;;;;;;5028871;28;20029;-84
2022/09/08 09:09:29;;;;;;;5.22;2.75;;;19.60;97.50;;;;;;5032481;28;20517;-84
2022/09/08 09:12:29;;;;;;;6.60;2.45;;;19.90;97.40;;;;;;5032549;28;20040;-82
2022/09/08 09:15:42;;;;;;;8.88;2.67;;;20.00;97.00;;;;;;5022398;28;20034;-78
2022/09/08 09:18:20;;;;;;;6.97;3.28;;;20.00;96.00;;;;;;5012235;28;20500;-79
2022/09/08 09:20:55;;;;;;;5.85;2.50;;;20.00;95.60;;;;;;5013293;28;20033;-79
2022/09/08 09:23:36;;;;;;;8.55;3.35;;;20.10;95.60;;;;;;5013805;28;20192;-79
2022/09/08 09:26:06;;;;;;;7.85;2.80;;;20.10;95.00;;;;;;5028417;28;20083;-79
2022/09/08 09:28:55;;;;;;;6.75;2.75;;;20.10;94.70;;;;;;5032361;28;20068;-79
2022/09/08 09:31:58;;;;;;;7.13;3.10;;;20.10;94.50;;;;;;5030333;28;20042;-78
2022/09/08 09:34:42;;;;;;;8.00;3.60;;;20.10;94.50;;;;;;5022808;28;20075;-78
2022/09/08 09:37:19;;;;;;;;;;;20.10;94.50;;;;;;5033133;28;20030;-78
2022/09/08 09:40:07;;;;;;;7.68;2.92;;;20.30;94.50;;;;;;5032928;28;19948;-78
2022/09/08 09:42:41;;;;;;;5.40;2.70;;;20.40;94.20;;;;;;5031678;28;21193;-78
2022/09/08 09:45:22;;;;;;;6.40;2.30;;;20.50;93.90;;;;;;5031722;28;20040;-78
2022/09/08 09:48:11;;;;;;;6.28;2.22;;;20.50;93.00;;;;;;5032970;28;20029;-78
2022/09/08 09:50:56;;;;;;;6.63;1.90;;;20.40;92.20;;;;;;5031755;28;20030;-78
2022/09/08 09:53:46;;;;;;;3.35;1.15;;;20.40;91.60;;;;;;5029594;28;20040;-78
2022/09/08 09:56:23;;;;;;;6.78;1.98;;;20.40;91.40;;;;;;5025075;28;20478;-78
2022/09/08 09:59:20;;;;;;;4.88;1.55;;;20.30;91.10;;;;;;5033002;28;20032;-78
2022/09/08 10:02:10;;;;;;;3.92;2.10;;;20.30;91.20;;;;;;5022940;28;20474;-78
2022/09/08 10:05:01;;;;;;;6.68;1.98;;;20.20;91.20;;;;;;5028864;28;20026;-78
2022/09/08 10:07:53;;;;;;;4.07;1.70;;;20.20;91.30;;;;;;5027650;28;20416;-78
2022/09/08 10:10:28;;;;;;;6.18;1.90;;;20.20;91.40;;;;;;5036933;28;20044;-78
2022/09/08 10:13:17;;;;;;;6.22;2.33;;;20.40;91.20;;;;;;5035085;28;20037;-79
2022/09/08 10:15:54;;;;;;;4.90;2.13;;;20.50;91.20;;;;;;5029657;28;20025;-79
2022/09/08 10:18:50;;;;;;;4.38;2.00;;;20.60;90.90;;;;;;5035297;28;20037;-80
2022/09/08 10:21:22;;;;;;;3.13;1.48;;;21.00;91.10;;;;;;5027857;28;20034;-79
2022/09/08 10:23:59;;;;;;;5.88;2.25;;;21.40;90.90;;;;;;5037535;28;20045;-79
2022/09/08 10:26:53;;;;;;;3.78;1.90;;;21.60;90.00;;;;;;5014846;28;20030;-79
2022/09/08 10:29:31;;;;;;;5.57;2.10;;;21.70;88.90;;;;;;5028980;28;20053;-79
2022/09/08 10:32:08;;;;;;;4.20;1.52;;;21.60;88.20;;;;;;5022817;28;20036;-79
2022/09/08 10:35:03;;;;;;;4.43;1.58;;;21.70;87.20;;;;;;5036326;28;20048;-79
2022/09/08 10:38:08;;;;;;;4.13;1.50;;;21.70;85.90;;;;;;5036223;28;20485;-78
2022/09/08 10:40:43;;;;;;;5.07;1.17;;;21.80;86.20;;;;;;5033908;28;20048;-78
2022/09/08 10:43:25;;;;;;;3.67;1.30;;;22.20;85.30;;;;;;5034837;28;20026;-77
2022/09/08 10:46:09;;;;;;;3.17;1.23;;;22.20;83.70;;;;;;5031668;28;20450;-76
2022/09/08 10:49:11;;;;;;;4.40;2.22;;;22.10;82.90;;;;;;5020250;28;20030;-79
2022/09/08 10:51:37;;;;;;;5.68;1.60;;;22.00;82.30;;;;;;5014820;28;20042;-78
2022/09/08 10:54:40;;;;;;;5.65;1.42;;;21.80;81.30;;;;;;5019345;28;20084;-79
2022/09/08 10:57:29;;;;;;;2.38;1.02;;;21.60;81.10;;;;;;5034773;28;20032;-77
2022/09/08 11:00:01;;;;;;;2.63;0.90;;;21.70;82.80;;;;;;5032252;28;20466;-78
2022/09/08 11:02:27;;;;;;;2.13;0.80;;;22.40;84.00;;;;;;5035554;28;20033;-78
2022/09/08 11:05:23;;;;;;;3.17;0.90;;;23.00;82.90;;;;;;5035684;28;20029;-79
2022/09/08 11:08:23;;;;;;;3.67;0.80;;;23.20;80.50;;;;;;5035173;28;20025;-78
2022/09/08 11:10:54;;;;;;;3.28;0.75;;;23.30;78.10;;;;;;5035410;28;20435;-78
2022/09/08 11:13:30;;;;;;;2.85;0.70;;;23.80;78.40;;;;;;5028898;28;20120;-78
2022/09/08 11:16:41;;;;;;;5.15;0.85;;;24.10;75.70;;;;;;5020923;28;20112;-78
2022/09/08 11:19:42;;;;;;;5.07;0.80;;;24.00;73.00;;;;;;5019216;28;20132;-78
2022/09/08 11:22:13;;;;;;;5.82;0.80;;;23.70;71.70;;;;;;5035059;28;20033;-77
2022/09/08 11:25:04;;;;;;;6.38;1.00;;;23.40;71.70;;;;;;5034229;28;20040;-79
2022/09/08 11:27:42;;;;;;;4.22;0.80;;;23.30;73.00;;;;;;5038336;28;20083;-77
2022/09/08 11:30:19;;;;;;;2.47;0.50;;;23.80;72.80;;;;;;5037270;28;20461;-78
2022/09/08 11:32:50;;;;;;;5.18;0.80;;;24.30;71.30;;;;;;5043426;28;20029;-80
2022/09/08 11:35:28;;;;;;;5.30;0.70;;;24.80;70.90;;;;;;5043942;28;20087;-78
2022/09/08 11:38:09;;;;;;;2.95;1.15;;;25.50;70.80;;;;;;5043639;28;20025;-78
2022/09/08 11:40:53;;;;;;;5.03;0.70;;;26.20;68.30;;;;;;5033050;28;20083;-79
2022/09/08 11:43:57;;;;;;;2.63;0.50;;;27.00;65.50;;;;;;5033556;28;20022;-80
2022/09/08 11:46:47;;;;;;;4.82;0.65;;;27.80;63.40;;;;;;5015027;28;20053;-82
2022/09/08 11:49:27;;;;;;;4.03;0.57;;;28.20;62.50;;;;;;5030594;28;20113;-81
2022/09/08 11:51:52;;;;;;;3.67;0.75;;;28.40;61.50;;;;;;5046493;28;20033;-80
2022/09/08 11:54:30;;;;;;;1.92;0.50;;;28.40;60.90;;;;;;5033372;28;20025;-79
2022/09/08 11:57:23;;;;;;;3.33;0.73;;;28.40;59.50;;;;;;5034693;28;20026;-81
2022/09/08 12:00:07;;;;;;;2.70;0.50;;;28.40;59.10;;;;;;5033532;28;20099;-81
2022/09/08 12:03:06;;;;;;;4.65;0.52;;;28.40;58.70;;;;;;5034894;28;20461;-78
2022/09/08 12:05:44;;;;;;;6.18;0.73;;;28.40;57.90;;;;;;5033654;28;20112;-81
2022/09/08 12:08:28;;;;;;;4.45;0.70;;;28.50;58.90;;;;;;5033960;28;20014;-80
2022/09/08 12:11:10;;;;;;;3.10;0.60;;;28.60;57.00;;;;;;5033938;28;20029;-79
2022/09/08 12:13:58;;;;;;;3.08;0.52;;;28.60;56.90;;;;;;5034884;28;20045;-80
2022/09/08 12:16:45;;;;;;;2.92;0.52;;;28.70;56.40;;;;;;5033609;28;20083;-83
2022/09/08 12:19:34;;;;;;;3.45;0.50;;;28.70;55.70;;;;;;5034744;28;20109;-80
2022/09/08 12:22:31;;;;;;;3.88;0.47;;;28.80;55.90;;;;;;5034704;28;20025;-79
2022/09/08 12:25:15;;;;;;;3.42;0.45;;;29.00;55.70;;;;;;5034588;28;20069;-78
2022/09/08 12:28:22;;;;;;;7.25;0.70;;;29.20;54.90;;;;;;5034623;28;20036;-77
2022/09/08 12:31:14;;;;;;;2.63;0.60;;;29.30;54.40;;;;;;5012386;28;20117;-78
2022/09/08 12:33:58;;;;;;;2.10;0.50;;;29.10;53.90;;;;;;5015003;28;20451;-76
2022/09/08 12:36:37;;;;;;;3.70;0.50;;;29.10;53.80;;;;;;5017351;28;20026;-77
2022/09/08 12:39:18;;;;;;;5.65;0.60;;;28.90;53.20;;;;;;5022496;28;20061;-81
2022/09/08 12:42:08;;;;;;;5.15;0.50;;;28.70;53.40;;;;;;5019671;28;20103;-76
2022/09/08 12:44:54;;;;;;;6.63;0.60;;;28.40;53.30;;;;;;5033849;28;20087;-80
2022/09/08 12:47:39;;;;;;;3.67;0.60;;;28.20;53.80;;;;;;5032692;28;20025;-79
2022/09/08 12:50:29;;;;;;;5.53;0.70;;;28.10;54.30;;;;;;5034075;28;20029;-80
2022/09/08 12:53:04;;;;;;;4.28;0.50;;;28.20;53.90;;;;;;5019393;28;20017;-82
2022/09/08 12:55:40;;;;;;;3.10;0.50;;;28.40;53.60;;;;;;5032388;28;20347;-80
2022/09/08 12:58:06;;;;;;;4.22;0.40;;;28.60;52.80;;;;;;5032969;28;20033;-81
2022/09/08 13:00:50;;;;;;;4.18;0.60;;;28.90;52.60;;;;;;5016328;28;20037;-78
2022/09/08 13:03:35;;;;;;;6.00;0.65;;;29.20;52.10;;;;;;5033624;28;20513;-79
2022/09/08 13:06:03;;;;;;;3.05;0.63;;;29.40;51.70;;;;;;5032612;28;20029;-77
2022/09/08 13:09:01;;;;;;;4.20;0.40;;;29.70;51.80;;;;;;5033966;28;20037;-76
2022/09/08 13:12:28;;;;;;;4.03;0.63;;;30.00;50.90;;;;;;5032362;28;20048;-79
2022/09/08 13:15:05;;;;;;;4.55;0.47;;;30.40;50.40;;;;;;5049858;28;20532;-78
2022/09/08 13:17:42;;;;;;;3.05;0.50;;;30.50;50.10;;;;;;5034416;28;20033;-80
2022/09/08 13:20:17;;;;;;;3.08;0.40;;;30.30;49.70;;;;;;5033350;28;20040;-81
2022/09/08 13:23:02;;;;;;;2.80;0.50;;;30.30;49.90;;;;;;5032009;28;20437;-79
2022/09/08 13:25:52;;;;;;;2.00;0.40;;;30.50;50.00;;;;;;5033449;28;20017;-76
2022/09/08 13:28:59;;;;;;;2.88;0.50;;;30.80;49.70;;;;;;5032252;28;20113;-74
2022/09/08 13:32:03;;;;;;;3.85;0.43;;;30.90;49.30;;;;;;5041021;28;20497;-74
2022/09/08 13:34:39;;;;;;;;;;;30.80;48.80;;;;;;5024028;28;20033;-73